createdAt,value
2019-01-21T00:00:59.639Z,39.38
2019-01-21T00:03:31.285Z,39.73
2019-01-21T00:06:04.016Z,39.47
2019-01-21T00:08:37.010Z,39.41
2019-01-21T00:11:10.029Z,39.43
2019-01-21T00:13:43.332Z,39.62
2019-01-21T00:16:16.426Z,39.53
2019-01-21T00:18:49.340Z,39.31
2019-01-21T00:21:22.375Z,39.38
2019-01-21T00:23:55.072Z,39.23
2019-01-21T00:26:28.328Z,39.48
2019-01-21T00:29:01.329Z,39.05
2019-01-21T00:31:34.061Z,38.92
2019-01-21T00:34:06.942Z,39.12
2019-01-21T00:36:39.922Z,38.98
2019-01-21T00:39:12.572Z,39.60
2019-01-21T00:41:45.445Z,39.21
2019-01-21T00:44:18.077Z,39.21
2019-01-21T00:46:51.517Z,39.58
2019-01-21T00:49:24.334Z,39.52
2019-01-21T00:51:57.015Z,39.52
2019-01-21T00:54:29.715Z,38.98
2019-01-21T00:57:01.306Z,38.71
2019-01-21T00:59:34.112Z,39.28
2019-01-21T01:02:07.081Z,38.92
2019-01-21T01:04:40.048Z,38.32
2019-01-21T01:07:13.468Z,39.20
2019-01-21T01:09:46.052Z,39.40
2019-01-21T01:12:18.894Z,39.23
2019-01-21T01:14:52.107Z,39.43
2019-01-21T01:17:25.126Z,39.09
2019-01-21T01:19:58.352Z,39.25
2019-01-21T01:22:31.430Z,39.49
2019-01-21T01:25:04.129Z,39.00
2019-01-21T01:27:37.103Z,39.42
2019-01-21T01:30:12.324Z,39.12
2019-01-21T01:32:45.022Z,38.82
2019-01-21T01:35:19.346Z,39.29
2019-01-21T01:37:52.098Z,39.46
2019-01-21T01:40:24.977Z,39.87
2019-01-21T01:42:57.659Z,39.37
2019-01-21T01:45:31.330Z,38.43
2019-01-21T01:48:06.347Z,38.43
2019-01-21T01:50:39.053Z,39.07
2019-01-21T01:53:12.168Z,39.51
2019-01-21T01:55:44.929Z,39.44
2019-01-21T01:58:17.685Z,39.57
2019-01-21T02:00:50.498Z,39.09
2019-01-21T02:03:22.956Z,39.09
2019-01-21T02:05:56.010Z,39.02
2019-01-21T02:08:29.001Z,39.07
2019-01-21T02:11:01.782Z,39.43
2019-01-21T02:13:33.289Z,38.48
2019-01-21T02:16:05.923Z,38.95
2019-01-21T02:18:38.335Z,39.00
2019-01-21T02:21:11.128Z,39.11
2019-01-21T02:23:44.913Z,39.43
2019-01-21T02:26:24.669Z,38.65
2019-01-21T02:29:12.659Z,39.07
2019-01-21T02:32:53.142Z,39.33
2019-01-21T02:36:20.409Z,39.13
2019-01-21T02:39:48.762Z,39.16
2019-01-21T02:43:07.116Z,39.41
2019-01-21T02:47:18.559Z,38.76
2019-01-21T02:51:22.339Z,38.66
2019-01-21T02:54:45.652Z,38.66
2019-01-21T02:58:04.466Z,38.77
2019-01-21T03:01:51.537Z,38.24
2019-01-21T03:06:10.078Z,39.35
2019-01-21T03:09:50.346Z,39.35
2019-01-21T03:13:37.570Z,39.50
2019-01-21T03:17:25.342Z,39.43
2019-01-21T03:21:06.072Z,39.43
2019-01-21T03:25:02.367Z,39.64
2019-01-21T03:28:37.878Z,39.35
2019-01-21T03:32:53.679Z,38.80
2019-01-21T03:37:03.089Z,39.68
2019-01-21T03:40:58.455Z,39.65
2019-01-21T03:45:00.032Z,39.44
2019-01-21T03:48:31.904Z,39.13
2019-01-21T03:52:04.425Z,39.64
2019-01-21T03:54:51.046Z,39.21
2019-01-21T03:58:42.377Z,39.15
2019-01-21T04:02:17.015Z,38.31
2019-01-21T04:06:11.336Z,39.31
2019-01-21T04:10:10.057Z,38.79
2019-01-21T04:13:41.324Z,39.25
2019-01-21T04:17:18.890Z,39.62
2019-01-21T04:20:54.292Z,39.35
2019-01-21T04:25:10.630Z,39.40
2019-01-21T04:28:42.455Z,39.55
2019-01-21T04:32:22.998Z,39.55
2019-01-21T04:36:00.396Z,40.49
2019-01-21T04:39:26.504Z,39.26
2019-01-21T04:43:32.328Z,39.64
2019-01-21T04:47:36.389Z,39.51
2019-01-21T04:51:45.357Z,39.77
2019-01-21T04:55:32.904Z,39.40
2019-01-21T04:59:36.801Z,39.22
2019-01-21T05:03:08.926Z,39.59
2019-01-21T05:06:26.779Z,39.35
2019-01-21T05:09:44.820Z,39.49
2019-01-21T05:13:05.414Z,39.13
2019-01-21T05:16:35.283Z,39.28
2019-01-21T05:20:09.329Z,38.79
2019-01-21T05:24:08.763Z,39.61
2019-01-21T05:27:41.783Z,39.75
2019-01-21T05:31:18.763Z,39.61
2019-01-21T05:34:42.479Z,38.67
2019-01-21T05:38:29.824Z,39.12
2019-01-21T05:42:08.837Z,38.88
2019-01-21T05:46:06.321Z,38.58
2019-01-21T05:50:09.318Z,38.67
2019-01-21T05:53:52.775Z,38.76
2019-01-21T05:57:29.045Z,38.95
2019-01-21T06:01:24.888Z,38.57
2019-01-21T06:04:45.809Z,39.34
2019-01-21T06:08:33.070Z,39.68
2019-01-21T06:12:00.884Z,39.29
2019-01-21T06:16:15.442Z,38.22
2019-01-21T06:19:47.762Z,38.66
2019-01-21T06:23:01.955Z,38.92
2019-01-21T06:27:01.806Z,38.81
2019-01-21T06:30:48.764Z,38.82
2019-01-21T06:33:56.862Z,39.38
2019-01-21T06:37:36.618Z,38.71
2019-01-21T06:41:17.069Z,39.56
2019-01-21T06:44:56.422Z,39.56
2019-01-21T06:48:41.761Z,39.20
2019-01-21T06:52:27.629Z,39.50
2019-01-21T06:56:26.761Z,39.37
2019-01-21T07:00:09.780Z,39.37
2019-01-21T07:03:43.502Z,39.75
2019-01-21T07:07:19.053Z,39.49
2019-01-21T07:10:44.862Z,39.44
2019-01-21T07:14:41.398Z,39.71
2019-01-21T07:18:39.280Z,38.70
2019-01-21T07:22:55.783Z,39.15
2019-01-21T07:26:36.798Z,38.83
2019-01-21T07:43:49.898Z,39.56
2019-01-21T07:47:41.797Z,39.38
2019-01-21T07:51:25.959Z,39.53
2019-01-21T07:55:00.995Z,38.85
2019-01-21T07:59:12.321Z,38.20
2019-01-21T08:02:30.506Z,38.33
2019-01-21T08:06:15.858Z,38.42
2019-01-21T08:10:33.300Z,38.96
2019-01-21T08:30:23.337Z,39.23
2019-01-21T08:33:40.725Z,38.97
2019-01-21T08:36:47.888Z,39.19
2019-01-21T08:40:28.944Z,38.62
2019-01-21T08:44:13.843Z,39.13
2019-01-21T08:48:14.366Z,39.27
2019-01-21T08:51:43.465Z,38.68
2019-01-21T08:55:16.781Z,38.84
2019-01-21T08:58:39.252Z,38.82
2019-01-21T09:04:50.407Z,38.73
2019-01-21T09:08:44.856Z,38.46
2019-01-21T09:12:32.826Z,38.34
2019-01-21T09:16:28.826Z,38.94
2019-01-21T09:20:33.307Z,39.29
2019-01-21T09:24:22.756Z,39.15
2019-01-21T09:27:46.917Z,38.88
2019-01-21T09:31:29.306Z,38.62
2019-01-21T09:34:56.277Z,38.71
2019-01-21T09:38:32.310Z,38.98
2019-01-21T09:42:06.070Z,38.53
2019-01-21T09:45:31.658Z,39.22
2019-01-21T09:48:00.377Z,39.31
2019-01-21T09:50:32.316Z,39.31
2019-01-21T09:53:04.045Z,39.22
2019-01-21T09:55:35.781Z,38.95
2019-01-21T09:58:10.922Z,39.19
2019-01-21T10:00:42.800Z,38.67
2019-01-21T10:03:14.065Z,38.23
2019-01-21T10:05:46.873Z,38.32
2019-01-21T10:08:48.786Z,38.63
2019-01-21T10:11:54.752Z,38.56
2019-01-21T10:15:18.477Z,38.66
2019-01-21T10:21:21.817Z,38.94
2019-01-21T10:24:50.447Z,38.39
2019-01-21T10:28:29.989Z,38.00
2019-01-21T10:32:48.417Z,37.47
2019-01-21T10:36:21.485Z,36.67
2019-01-21T10:39:51.776Z,37.31
2019-01-21T10:43:35.296Z,37.71
2019-01-21T10:47:38.729Z,37.54
2019-01-21T10:50:57.626Z,37.02
2019-01-21T10:54:17.756Z,37.49
2019-01-21T10:57:16.508Z,37.49
2019-01-21T11:00:58.839Z,37.38
2019-01-21T11:04:09.866Z,37.39
2019-01-21T11:08:34.811Z,37.95
2019-01-21T11:12:24.774Z,37.88
2019-01-21T11:15:34.770Z,38.50
2019-01-21T11:19:22.157Z,37.85
2019-01-21T11:22:12.738Z,38.71
2019-01-21T11:25:53.419Z,37.95
2019-01-21T11:29:37.787Z,38.17
2019-01-21T11:33:07.255Z,38.27
2019-01-21T11:36:34.765Z,38.34
2019-01-21T11:40:05.928Z,38.23
2019-01-21T11:43:47.301Z,37.82
2019-01-21T11:47:23.903Z,38.67
2019-01-21T11:50:42.626Z,38.40
2019-01-21T11:54:13.915Z,38.17
2019-01-21T11:57:51.563Z,38.17
2019-01-21T12:01:56.692Z,37.37
2019-01-21T12:04:46.267Z,37.37
2019-01-21T12:08:55.063Z,38.84
2019-01-21T12:12:32.778Z,38.22
2019-01-21T12:15:44.822Z,38.73
2019-01-21T12:19:07.397Z,38.61
2019-01-21T12:22:45.310Z,38.54
2019-01-21T12:25:44.797Z,38.76
2019-01-21T12:29:10.593Z,38.83
2019-01-21T12:32:58.302Z,38.49
2019-01-21T12:36:07.777Z,38.49
2019-01-21T12:39:28.818Z,38.52
2019-01-21T12:43:06.757Z,38.39
2019-01-21T12:46:39.937Z,37.87
2019-01-21T12:50:09.720Z,38.15
2019-01-21T13:02:53.610Z,38.48
2019-01-21T13:06:18.728Z,38.19
2019-01-21T13:09:17.262Z,38.19
2019-01-21T13:12:32.689Z,38.26
2019-01-21T13:15:44.291Z,38.26
2019-01-21T13:19:39.549Z,38.26
2019-01-21T13:23:01.958Z,37.82
2019-01-21T13:26:33.568Z,38.21
2019-01-21T13:30:07.831Z,38.09
2019-01-21T13:33:23.763Z,38.63
2019-01-21T13:36:41.563Z,38.35
2019-01-21T13:40:17.282Z,38.87
2019-01-21T13:43:37.431Z,38.22
2019-01-21T13:47:11.336Z,38.90
2019-01-21T13:50:19.291Z,38.40
2019-01-21T13:54:30.844Z,38.31
2019-01-21T13:58:21.348Z,37.85
2019-01-21T14:01:48.772Z,38.77
2019-01-21T14:05:38.023Z,38.24
2019-01-21T14:09:25.307Z,38.48
2019-01-21T14:12:11.740Z,38.60
2019-01-21T14:15:30.280Z,38.20
2019-01-21T14:19:01.295Z,37.88
2019-01-21T14:22:58.297Z,38.40
2019-01-21T14:26:48.739Z,38.58
2019-01-21T14:29:53.921Z,38.51
2019-01-21T14:33:29.784Z,38.50
2019-01-21T14:36:32.579Z,38.10
2019-01-21T14:39:45.425Z,38.14
2019-01-21T14:43:30.407Z,38.14
2019-01-21T14:47:14.702Z,38.33
2019-01-21T14:50:42.392Z,37.61
2019-01-21T14:54:02.800Z,38.14
2019-01-21T14:57:43.745Z,38.19
2019-01-21T15:01:08.957Z,38.41
2019-01-21T15:04:55.305Z,37.47
2019-01-21T15:08:12.338Z,34.05
2019-01-21T15:12:07.496Z,32.04
2019-01-21T15:16:07.309Z,31.67
2019-01-21T15:19:38.034Z,31.39
2019-01-21T15:23:11.041Z,31.26
2019-01-21T15:26:35.728Z,31.86
2019-01-21T15:30:06.330Z,31.52
2019-01-21T15:33:39.047Z,31.42
2019-01-21T15:37:27.334Z,30.69
2019-01-21T15:41:19.092Z,30.50
2019-01-21T15:45:12.110Z,29.64
2019-01-21T15:49:00.125Z,28.20
2019-01-21T15:52:33.756Z,28.09
2019-01-21T15:55:50.563Z,27.69
2019-01-21T15:59:25.441Z,27.79
2019-01-21T16:02:42.403Z,27.79
2019-01-21T16:06:04.711Z,28.09
2019-01-21T16:09:46.416Z,28.43
2019-01-21T16:13:17.279Z,27.76
2019-01-21T16:17:28.388Z,28.06
2019-01-21T16:20:18.301Z,27.95
2019-01-21T16:24:21.288Z,29.26
2019-01-21T16:27:05.558Z,29.10
2019-01-21T16:29:50.339Z,29.73
2019-01-21T16:33:51.752Z,30.42
2019-01-21T16:37:12.620Z,30.25
2019-01-21T16:41:22.373Z,32.08
2019-01-21T16:43:54.300Z,32.08
2019-01-21T16:46:25.715Z,33.65
2019-01-21T16:48:57.315Z,35.28
2019-01-21T16:51:28.723Z,35.65
2019-01-21T16:53:59.645Z,34.29
2019-01-21T16:56:31.298Z,36.28
2019-01-21T16:59:02.709Z,36.28
2019-01-21T17:01:33.362Z,36.76
2019-01-21T17:04:04.747Z,36.83
2019-01-21T17:06:36.304Z,36.99
2019-01-21T17:09:12.345Z,37.12
2019-01-21T17:11:44.402Z,36.73
2019-01-21T17:14:15.731Z,37.23
2019-01-21T17:16:46.360Z,36.91
2019-01-21T17:19:18.080Z,35.96
2019-01-21T17:21:49.373Z,31.76
2019-01-21T17:24:20.728Z,29.84
2019-01-21T17:26:51.929Z,29.98
2019-01-21T17:29:23.432Z,29.49
2019-01-21T17:31:55.000Z,28.81
2019-01-21T17:37:07.683Z,28.75
2019-01-21T17:39:38.406Z,29.15
2019-01-21T17:42:10.250Z,28.35
2019-01-21T17:44:41.699Z,28.36
2019-01-21T17:47:12.350Z,28.54
2019-01-21T17:49:43.772Z,28.81
2019-01-21T17:52:14.403Z,29.32
2019-01-21T17:54:45.867Z,29.68
2019-01-21T17:57:17.340Z,29.63
2019-01-21T17:59:48.725Z,29.67
2019-01-21T18:02:20.291Z,30.29
2019-01-21T18:04:52.299Z,30.58
2019-01-21T18:07:23.718Z,32.38
2019-01-21T18:09:54.347Z,31.87
2019-01-21T18:12:25.745Z,32.42
2019-01-21T18:14:56.330Z,33.06
2019-01-21T18:17:28.325Z,33.15
2019-01-21T18:19:59.752Z,37.13
2019-01-21T18:22:30.366Z,36.41
2019-01-21T18:25:01.702Z,34.67
2019-01-21T18:27:32.415Z,36.43
2019-01-21T18:30:03.903Z,35.76
2019-01-21T18:32:35.734Z,35.65
2019-01-21T18:35:08.933Z,36.63
2019-01-21T18:37:40.754Z,36.76
2019-01-21T18:40:15.416Z,36.45
2019-01-21T18:42:48.311Z,36.61
2019-01-21T18:45:27.359Z,36.51
2019-01-21T18:48:00.355Z,36.58
2019-01-21T18:50:32.501Z,37.53
2019-01-21T18:53:04.817Z,36.98
2019-01-21T18:55:36.824Z,32.25
2019-01-21T18:58:08.801Z,31.13
2019-01-21T19:00:40.812Z,29.08
2019-01-21T19:03:12.802Z,28.64
2019-01-21T19:05:44.761Z,27.95
2019-01-21T19:08:16.361Z,27.95
2019-01-21T19:10:48.663Z,27.14
2019-01-21T19:13:20.925Z,27.60
2019-01-21T19:15:53.310Z,26.71
2019-01-21T19:18:25.331Z,26.36
2019-01-21T19:20:57.352Z,27.13
2019-01-21T19:23:29.538Z,27.15
2019-01-21T19:26:01.726Z,27.49
2019-01-21T19:28:33.266Z,28.14
2019-01-21T19:31:05.269Z,28.14
2019-01-21T19:33:37.291Z,29.62
2019-01-21T19:36:09.842Z,29.86
2019-01-21T19:38:41.850Z,30.02
2019-01-21T19:41:13.811Z,29.80
2019-01-21T19:43:45.880Z,31.23
2019-01-21T19:46:17.847Z,30.98
2019-01-21T19:48:49.826Z,30.48
2019-01-21T19:51:21.807Z,35.66
2019-01-21T19:53:53.849Z,36.42
2019-01-21T19:56:25.808Z,35.53
2019-01-21T19:58:57.855Z,36.02
2019-01-21T20:01:29.807Z,35.90
2019-01-21T20:04:01.823Z,36.39
2019-01-21T20:06:33.801Z,36.66
2019-01-21T20:09:08.381Z,35.03
2019-01-21T20:11:40.764Z,36.04
2019-01-21T20:14:11.669Z,36.45
2019-01-21T20:16:44.085Z,36.67
2019-01-21T20:19:16.890Z,36.94
2019-01-21T20:21:48.813Z,36.80
2019-01-21T20:24:20.873Z,36.96
2019-01-21T20:26:52.833Z,36.67
2019-01-21T20:29:24.847Z,36.66
2019-01-21T20:31:56.802Z,37.63
2019-01-21T20:34:28.869Z,37.35
2019-01-21T20:37:01.297Z,37.79
2019-01-21T20:39:33.797Z,37.22
2019-01-21T20:42:05.792Z,38.25
2019-01-21T20:44:38.514Z,37.87
2019-01-21T20:47:10.807Z,37.87
2019-01-21T20:49:43.831Z,37.87
2019-01-21T20:52:15.812Z,38.19
2019-01-21T20:54:47.984Z,38.12
2019-01-21T20:57:21.022Z,38.42
2019-01-21T20:59:53.857Z,38.05
2019-01-21T21:02:25.996Z,38.57
2019-01-21T21:04:59.394Z,37.92
2019-01-21T21:07:33.054Z,38.72
2019-01-21T21:10:07.361Z,38.17
2019-01-21T21:12:40.303Z,37.80
2019-01-21T21:15:24.318Z,37.93
2019-01-21T21:17:59.100Z,38.40
2019-01-21T21:20:32.051Z,38.47
2019-01-21T21:23:05.019Z,38.28
2019-01-21T21:25:38.049Z,38.53
2019-01-21T21:28:11.318Z,38.62
2019-01-21T21:30:44.559Z,38.98
2019-01-21T21:33:17.256Z,38.57
2019-01-21T21:35:50.299Z,38.57
2019-01-21T21:38:23.059Z,38.47
2019-01-21T21:40:56.289Z,39.04
2019-01-21T21:43:29.058Z,38.27
2019-01-21T21:46:02.838Z,38.68
2019-01-21T21:48:35.471Z,38.53
2019-01-21T21:51:08.304Z,38.82
2019-01-21T21:53:41.295Z,38.95
2019-01-21T21:56:15.038Z,38.56
2019-01-21T21:58:48.268Z,38.81
2019-01-21T22:01:24.005Z,39.11
2019-01-21T22:03:56.105Z,38.08
2019-01-21T22:06:28.856Z,38.84
2019-01-21T22:09:01.554Z,39.35
2019-01-21T22:11:33.985Z,38.52
2019-01-21T22:14:07.373Z,39.28
2019-01-21T22:16:40.301Z,38.96
2019-01-21T22:19:13.409Z,38.84
2019-01-21T22:21:45.856Z,38.70
2019-01-21T22:24:18.330Z,39.45
2019-01-21T22:26:50.264Z,38.51
2019-01-21T22:29:22.381Z,39.05
2019-01-21T22:31:54.057Z,38.62
2019-01-21T22:34:26.474Z,39.62
2019-01-21T22:36:58.061Z,39.00
2019-01-21T22:39:29.756Z,39.23
2019-01-21T22:42:00.477Z,39.40
2019-01-21T22:44:32.294Z,38.65
2019-01-21T22:47:04.052Z,38.65
2019-01-21T22:49:35.722Z,39.31
2019-01-21T22:53:13.297Z,38.64
2019-01-21T22:55:44.870Z,38.64
2019-01-21T22:58:16.420Z,38.80
2019-01-21T23:01:32.753Z,39.01
2019-01-21T23:04:04.613Z,39.24
2019-01-21T23:06:36.384Z,38.92
2019-01-21T23:09:11.277Z,38.92
2019-01-21T23:11:42.828Z,39.50
2019-01-21T23:14:14.585Z,39.17
2019-01-21T23:16:46.333Z,39.31
2019-01-21T23:19:17.837Z,39.31
2019-01-21T23:21:49.610Z,39.00
2019-01-21T23:24:21.722Z,39.84
2019-01-21T23:26:53.352Z,38.96
2019-01-21T23:29:25.583Z,39.23
2019-01-21T23:31:57.366Z,39.73
2019-01-21T23:34:29.748Z,39.73
2019-01-21T23:37:00.479Z,39.00
2019-01-21T23:39:32.638Z,39.78
2019-01-21T23:42:04.901Z,38.66
2019-01-21T23:44:36.775Z,39.14
2019-01-21T23:47:07.721Z,38.74
2019-01-21T23:49:38.502Z,39.67
2019-01-21T23:52:10.260Z,38.68
2019-01-21T23:54:41.857Z,39.47
2019-01-21T23:57:13.786Z,39.07
2019-01-21T23:59:44.479Z,38.79
